Time;durP1;ratioP1;P1;durP2;ratioP2;P2;SDS_P1;SDS_P2;PMS_P1;PMS_P2;Temp;Humidity;BMP_temperature;BMP_pressure;BME280_temperature;BME280_humidity;BME280_pressure;Samples;Min_cycle;Max_cycle;Signal;HPM_P1;HPM_P2
2022/10/07 00:01:50;;;;;;;1.07;0.77;;;;;;;8.37;97.52;101656.72;5012808;28;20177;-73
2022/10/07 00:04:16;;;;;;;0.00;0.00;;;;;;;8.33;97.92;101654.50;5012708;28;20696;-75
2022/10/07 00:06:41;;;;;;;0.07;0.07;;;;;;;8.29;98.00;101650.69;5027854;28;20650;-74
2022/10/07 00:09:07;;;;;;;0.00;0.00;;;;;;;8.30;98.16;101659.69;5012499;28;20181;-74
2022/10/07 00:11:33;;;;;;;0.00;0.00;;;;;;;8.25;98.55;101663.22;5012638;28;20279;-73
2022/10/07 00:14:02;;;;;;;0.27;0.27;;;;;;;8.20;98.77;101652.28;5010127;28;20299;-74
2022/10/07 00:16:34;;;;;;;8.87;0.37;;;;;;;8.13;98.57;101653.63;5012055;28;20176;-73
2022/10/07 00:19:02;;;;;;;2.83;2.63;;;;;;;8.05;98.62;101654.94;5012102;28;20271;-73
2022/10/07 00:21:31;;;;;;;0.00;0.00;;;;;;;7.99;99.25;101637.75;5010954;28;20191;-74
2022/10/07 00:23:57;;;;;;;0.93;0.93;;;;;;;7.95;99.77;101635.81;5011893;28;20204;-74
2022/10/07 00:26:25;;;;;;;0.37;0.37;;;;;;;7.88;99.72;101632.53;5026866;28;20266;-74
2022/10/07 00:28:50;;;;;;;0.00;0.00;;;;;;;7.83;100.00;101641.50;5011845;28;20180;-74
2022/10/07 00:31:27;;;;;;;0.00;0.00;;;;;;;7.84;100.00;101631.44;5011917;28;20187;-74
2022/10/07 00:33:54;;;;;;;0.00;0.00;;;;;;;7.81;100.00;101630.06;5011970;28;20230;-74
2022/10/07 00:36:23;;;;;;;0.07;0.07;;;;;;;7.80;100.00;101624.84;5010145;28;20624;-74
2022/10/07 00:38:56;;;;;;;0.30;0.30;;;;;;;7.77;100.00;101623.47;5010388;28;20184;-74
2022/10/07 00:41:26;;;;;;;0.00;0.00;;;;;;;7.76;100.00;101611.78;5011879;28;20181;-74
2022/10/07 00:43:51;;;;;;;0.00;0.00;;;;;;;7.72;100.00;101607.97;5011776;28;20172;-74
2022/10/07 00:46:34;;;;;;;0.00;0.00;;;;;;;7.68;100.00;101598.69;5011512;28;20719;-74
2022/10/07 00:49:07;;;;;;;0.00;0.00;;;;;;;7.64;100.00;101596.75;5011555;28;20255;-73
2022/10/07 00:51:34;;;;;;;0.30;0.30;;;;;;;7.63;100.00;101590.50;5011659;28;20691;-74
2022/10/07 00:54:03;;;;;;;0.00;0.00;;;;;;;7.64;100.00;101596.75;5011669;28;20177;-74
2022/10/07 00:56:29;;;;;;;0.00;0.00;;;;;;;7.67;100.00;101583.47;5010199;28;20176;-74
2022/10/07 00:58:57;;;;;;;0.00;0.00;;;;;;;7.68;100.00;101584.28;5011420;28;20235;-75
2022/10/07 01:01:23;;;;;;;0.00;0.00;;;;;;;7.53;100.00;101585.00;5011467;28;20199;-75
2022/10/07 01:03:49;;;;;;;0.00;0.00;;;;;;;7.36;100.00;101582.44;5010134;28;20545;-74
2022/10/07 01:06:15;;;;;;;0.00;0.00;;;;;;;7.51;100.00;101581.72;5011038;28;20255;-74
2022/10/07 01:08:42;;;;;;;17.83;11.83;;;;;;;7.46;100.00;101570.81;5011137;28;20644;-74
2022/10/07 01:11:46;;;;;;;0.00;0.00;;;;;;;7.07;100.00;101571.09;5009883;28;20187;-74
2022/10/07 01:14:26;;;;;;;0.00;0.00;;;;;;;6.82;100.00;101566.28;4996245;28;20192;-73
2022/10/07 01:17:12;;;;;;;0.00;0.00;;;;;;;6.67;100.00;101565.34;5010901;28;20170;-74
2022/10/07 01:20:00;;;;;;;0.00;0.00;;;;;;;6.95;100.00;101565.03;5026147;28;20195;-75
2022/10/07 01:22:40;;;;;;;0.00;0.00;;;;;;;6.97;100.00;101559.34;5011054;28;20181;-74
2022/10/07 01:25:26;;;;;;;0.00;0.00;;;;;;;7.21;100.00;101554.34;5010665;28;20260;-74
2022/10/07 01:27:59;;;;;;;0.00;0.00;;;;;;;7.16;100.00;101552.41;5010763;28;20395;-75
2022/10/07 01:30:24;;;;;;;0.00;0.00;;;;;;;7.18;100.00;101552.16;5011348;28;20180;-74
2022/10/07 01:33:01;;;;;;;0.00;0.00;;;;;;;7.26;100.00;101544.34;5023471;28;20543;-74
2022/10/07 01:35:32;;;;;;;0.00;0.00;;;;;;;7.29;100.00;101540.28;5030634;28;20631;-74
2022/10/07 01:38:04;;;;;;;0.00;0.00;;;;;;;7.06;100.00;101539.56;5030430;28;20172;-74
2022/10/07 01:40:35;;;;;;;0.00;0.00;;;;;;;6.80;100.00;101538.56;5012752;28;20184;-74
2022/10/07 01:43:01;;;;;;;0.00;0.00;;;;;;;6.86;100.00;101533.97;5030549;28;20172;-74
2022/10/07 01:45:29;;;;;;;0.00;0.00;;;;;;;6.54;100.00;101532.09;5030460;28;20581;-74
2022/10/07 01:47:55;;;;;;;0.60;0.60;;;;;;;6.74;100.00;101541.50;5029881;28;20187;-74
2022/10/07 01:50:25;;;;;;;0.00;0.00;;;;;;;6.81;100.00;101534.78;5030297;28;20176;-74
2022/10/07 01:52:50;;;;;;;0.00;0.00;;;;;;;6.90;100.00;101535.09;5012669;28;20214;-74
2022/10/07 01:55:34;;;;;;;0.00;0.00;;;;;;;7.00;100.00;101534.38;5030411;28;20164;-74
2022/10/07 01:58:17;;;;;;;0.00;0.00;;;;;;;6.88;100.00;101529.09;5030464;28;20160;-74
2022/10/07 02:00:52;;;;;;;0.00;0.00;;;;;;;6.95;100.00;101526.19;5030674;28;20160;-75
2022/10/07 02:03:37;;;;;;;0.00;0.00;;;;;;;6.96;100.00;101527.81;5030758;28;20626;-73
2022/10/07 02:06:16;;;;;;;0.00;0.00;;;;;;;6.80;100.00;101519.56;5030820;28;20168;-74
2022/10/07 02:08:48;;;;;;;0.00;0.00;;;;;;;6.76;100.00;101518.41;5030850;28;20180;-74
2022/10/07 02:11:18;;;;;;;0.00;0.00;;;;;;;6.73;100.00;101515.41;5030905;28;20218;-73
2022/10/07 02:14:14;;;;;;;0.10;0.10;;;;;;;6.83;100.00;101504.63;5030752;28;20191;-73
2022/10/07 02:16:48;;;;;;;0.00;0.00;;;;;;;6.87;100.00;101494.88;5030942;28;20234;-73
2022/10/07 02:19:24;;;;;;;0.00;0.00;;;;;;;6.89;100.00;101508.19;5013159;28;20358;-74
2022/10/07 02:21:52;;;;;;;0.00;0.00;;;;;;;6.86;100.00;101501.38;5030754;28;20203;-74
2022/10/07 02:24:21;;;;;;;0.00;0.00;;;;;;;6.92;100.00;101492.19;5030710;28;20183;-74
2022/10/07 02:26:48;;;;;;;0.03;0.03;;;;;;;6.89;100.00;101490.00;5030248;28;20261;-74
2022/10/07 02:29:16;;;;;;;0.00;0.00;;;;;;;6.79;100.00;101492.63;5012755;28;20237;-73
2022/10/07 02:31:44;;;;;;;0.00;0.00;;;;;;;6.77;100.00;101492.06;5030689;28;20200;-74
2022/10/07 02:34:14;;;;;;;0.00;0.00;;;;;;;6.78;100.00;101497.25;5033392;28;20266;-74
2022/10/07 02:36:44;;;;;;;0.10;0.10;;;;;;;6.78;100.00;101488.28;5040769;28;20483;-74
2022/10/07 02:39:11;;;;;;;0.00;0.00;;;;;;;6.74;100.00;101496.13;5018790;28;20175;-75
2022/10/07 02:41:49;;;;;;;0.10;0.10;;;;;;;6.73;100.00;101490.97;5017957;28;20233;-74
2022/10/07 02:44:26;;;;;;;0.00;0.00;;;;;;;6.80;100.00;101475.28;5017365;28;20217;-74
2022/10/07 02:46:57;;;;;;;0.00;0.00;;;;;;;6.84;100.00;101485.34;5034077;28;20226;-74
2022/10/07 02:49:25;;;;;;;0.00;0.00;;;;;;;6.92;100.00;101481.31;5034290;28;20164;-74
2022/10/07 02:51:58;;;;;;;0.00;0.00;;;;;;;6.99;100.00;101481.09;5034662;28;20546;-75
2022/10/07 02:54:31;;;;;;;0.03;0.03;;;;;;;7.05;100.00;101480.03;5034057;28;20546;-74
2022/10/07 02:56:59;;;;;;;0.20;0.20;;;;;;;7.13;100.00;101483.09;5033934;28;20153;-74
2022/10/07 02:59:26;;;;;;;2.43;1.03;;;;;;;7.22;100.00;101479.88;5033963;28;20588;-74
2022/10/07 03:01:54;;;;;;;0.00;0.00;;;;;;;7.29;100.00;101477.75;5033968;28;20172;-74
2022/10/07 03:04:21;;;;;;;0.00;0.00;;;;;;;7.37;100.00;101478.03;5033686;28;20192;-75
2022/10/07 03:06:46;;;;;;;0.00;0.00;;;;;;;7.45;100.00;101476.75;5012624;28;20319;-74
2022/10/07 03:09:12;;;;;;;0.00;0.00;;;;;;;7.49;100.00;101480.56;5013997;28;20260;-75
2022/10/07 03:11:38;;;;;;;0.00;0.00;;;;;;;7.56;100.00;101472.16;5013800;28;20204;-74
2022/10/07 03:14:04;;;;;;;0.20;0.20;;;;;;;7.60;100.00;101476.00;5013781;28;20173;-74
2022/10/07 03:16:30;;;;;;;0.20;0.20;;;;;;;7.61;100.00;101466.75;5014071;28;20172;-74
2022/10/07 03:18:57;;;;;;;5.77;0.73;;;;;;;7.65;100.00;101474.09;5015749;28;20199;-74
2022/10/07 03:21:23;;;;;;;1.30;1.30;;;;;;;7.65;100.00;101474.09;5013793;28;20263;-75
2022/10/07 03:23:51;;;;;;;0.10;0.10;;;;;;;7.65;100.00;101474.09;5013481;28;20629;-74
2022/10/07 03:26:18;;;;;;;3.03;2.00;;;;;;;7.66;100.00;101473.00;5013612;28;20168;-75
2022/10/07 03:28:44;;;;;;;0.00;0.00;;;;;;;7.66;100.00;101473.00;5013611;28;20796;-75
2022/10/07 03:31:11;;;;;;;0.20;0.20;;;;;;;7.63;100.00;101467.28;5013600;28;20180;-75
2022/10/07 03:33:37;;;;;;;0.30;0.30;;;;;;;7.61;100.00;101459.41;5013412;28;20212;-73
2022/10/07 03:36:07;;;;;;;1.00;0.50;;;;;;;7.58;100.00;101451.78;5013740;28;20184;-74
2022/10/07 03:38:33;;;;;;;0.40;0.40;;;;;;;7.56;100.00;101453.94;5013841;28;20315;-74
2022/10/07 03:41:00;;;;;;;0.03;0.03;;;;;;;7.57;100.00;101450.16;5013227;28;20801;-75
2022/10/07 03:43:26;;;;;;;0.00;0.00;;;;;;;7.58;100.00;101449.06;5013232;28;20177;-74
2022/10/07 03:45:51;;;;;;;0.00;0.00;;;;;;;7.56;100.00;101443.06;5011695;28;20181;-75
2022/10/07 03:48:17;;;;;;;0.00;0.00;;;;;;;7.59;100.00;101442.53;5012387;28;20510;-74
2022/10/07 03:50:51;;;;;;;0.00;0.00;;;;;;;7.60;100.00;101443.34;5011649;28;20199;-75
2022/10/07 03:53:17;;;;;;;0.00;0.00;;;;;;;7.57;100.00;101444.72;5013304;28;20208;-74
2022/10/07 03:55:42;;;;;;;0.50;0.50;;;;;;;7.60;100.00;101444.16;5028266;28;20263;-74
2022/10/07 03:58:07;;;;;;;0.00;0.00;;;;;;;7.61;100.00;101444.97;5011759;28;20318;-75
2022/10/07 04:00:33;;;;;;;0.20;0.20;;;;;;;7.59;100.00;101442.53;5013174;28;20267;-74
2022/10/07 04:02:58;;;;;;;3.53;0.20;;;;;;;7.59;100.00;101441.72;5012587;28;20570;-75
2022/10/07 04:05:23;;;;;;;0.00;0.00;;;;;;;7.59;99.52;101437.09;5028091;28;20624;-75
2022/10/07 04:07:50;;;;;;;0.00;0.00;;;;;;;7.56;99.78;101440.34;5012587;28;20862;-74
2022/10/07 04:10:16;;;;;;;0.00;0.00;;;;;;;7.53;99.72;101440.91;5012670;28;20195;-73
2022/10/07 04:12:43;;;;;;;0.00;0.00;;;;;;;7.50;99.82;101443.31;5027894;28;20215;-76
2022/10/07 04:15:12;;;;;;;0.00;0.00;;;;;;;7.46;99.86;101443.03;5011474;28;20176;-74
2022/10/07 04:17:39;;;;;;;0.67;0.67;;;;;;;7.39;100.00;101437.84;5012164;28;20191;-74
2022/10/07 04:20:05;;;;;;;0.00;0.00;;;;;;;7.36;100.00;101434.81;5012820;28;20239;-73
2022/10/07 04:22:30;;;;;;;0.00;0.00;;;;;;;7.35;100.00;101433.19;5012875;28;20267;-73
2022/10/07 04:27:41;;;;;;;0.00;0.00;;;;;;;7.26;100.00;101424.75;5012293;28;20171;-73
2022/10/07 04:30:07;;;;;;;0.00;0.00;;;;;;;7.24;100.00;101437.78;5012354;28;20208;-74
2022/10/07 04:32:32;;;;;;;0.00;0.00;;;;;;;7.22;100.00;101430.94;5012069;28;20620;-73
2022/10/07 04:34:58;;;;;;;0.03;0.03;;;;;;;7.13;100.00;101425.22;5011906;28;20587;-74
2022/10/07 04:37:23;;;;;;;3.03;0.63;;;;;;;7.14;100.00;101424.13;5027113;28;20183;-74
2022/10/07 04:39:48;;;;;;;0.13;0.13;;;;;;;7.17;100.00;101429.03;5012021;28;20252;-73
2022/10/07 04:44:58;;;;;;;0.00;0.00;;;;;;;7.02;100.00;101421.63;5011897;28;20714;-73
2022/10/07 04:47:23;;;;;;;0.50;0.50;;;;;;;7.03;100.00;101423.25;5026515;28;20177;-74
2022/10/07 04:49:48;;;;;;;0.20;0.20;;;;;;;7.09;100.00;101414.06;5011799;28;20640;-74
2022/10/07 04:52:13;;;;;;;0.63;0.63;;;;;;;7.17;100.00;101423.59;5011696;28;20250;-75
2022/10/07 04:54:39;;;;;;;0.53;0.53;;;;;;;7.20;100.00;101419.53;5011580;28;20179;-74
2022/10/07 04:57:05;;;;;;;0.00;0.00;;;;;;;7.18;100.00;101411.66;5011266;28;20168;-74
2022/10/07 04:59:30;;;;;;;0.10;0.10;;;;;;;7.23;100.00;101408.13;5011018;28;20255;-73
2022/10/07 05:01:56;;;;;;;0.40;0.23;;;;;;;7.29;100.00;101412.50;5011472;28;20176;-74
2022/10/07 05:04:22;;;;;;;4.50;0.67;;;;;;;7.35;100.00;101416.88;5011408;28;20219;-75
2022/10/07 05:06:47;;;;;;;5.10;0.77;;;;;;;7.38;100.00;101406.31;5011223;28;20260;-74
2022/10/07 05:09:13;;;;;;;0.00;0.00;;;;;;;7.36;100.00;101410.34;5011281;28;20226;-73
2022/10/07 05:11:38;;;;;;;0.87;0.87;;;;;;;7.32;100.00;101407.34;5012818;28;20184;-74
2022/10/07 05:14:03;;;;;;;0.00;0.00;;;;;;;7.25;100.00;101406.81;5011284;28;20180;-73
2022/10/07 05:16:29;;;;;;;3.93;0.77;;;;;;;7.15;100.00;101404.84;5011240;28;20181;-73
2022/10/07 05:18:56;;;;;;;0.00;0.00;;;;;;;7.09;100.00;101405.91;5026394;28;20184;-74
2022/10/07 05:21:21;;;;;;;3.50;1.03;;;;;;;6.98;100.00;101404.22;5031314;28;20230;-75
2022/10/07 05:23:46;;;;;;;0.17;0.17;;;;;;;6.93;100.00;101392.50;5031073;28;20635;-74
2022/10/07 05:26:12;;;;;;;0.83;0.83;;;;;;;6.85;100.00;101391.09;5031118;28;20172;-74
2022/10/07 05:28:38;;;;;;;0.30;0.30;;;;;;;6.79;100.00;101389.44;5031054;28;20175;-74
2022/10/07 05:31:12;;;;;;;0.00;0.00;;;;;;;6.73;100.00;101391.31;5031314;28;20368;-74
2022/10/07 05:33:38;;;;;;;0.00;0.00;;;;;;;6.68;100.00;101395.91;5030847;28;20212;-74
2022/10/07 05:36:05;;;;;;;0.43;0.43;;;;;;;6.61;100.00;101390.69;5014763;28;20231;-74
2022/10/07 05:38:32;;;;;;;2.60;1.23;;;;;;;6.65;100.00;101382.81;5010986;28;20263;-74
2022/10/07 05:40:59;;;;;;;0.00;0.00;;;;;;;6.67;100.00;101377.97;5011294;28;20169;-74
2022/10/07 05:43:26;;;;;;;3.53;2.13;;;;;;;6.68;100.00;101379.59;5011053;28;20184;-74
2022/10/07 05:46:00;;;;;;;1.17;1.07;;;;;;;6.77;100.00;101383.44;5010915;28;20537;-75
2022/10/07 05:48:27;;;;;;;1.33;1.33;;;;;;;6.97;100.00;101380.84;5010550;28;20172;-73
2022/10/07 05:50:53;;;;;;;0.67;0.47;;;;;;;7.20;100.00;101376.88;5011317;28;20744;-75
2022/10/07 05:53:19;;;;;;;2.53;0.40;;;;;;;7.31;100.00;101378.53;5011212;28;20299;-76
2022/10/07 05:55:44;;;;;;;1.03;1.00;;;;;;;7.39;100.00;101383.47;5011258;28;20172;-76
2022/10/07 05:58:10;;;;;;;0.97;0.40;;;;;;;7.57;100.00;101379.44;5010963;28;20180;-76
2022/10/07 06:00:40;;;;;;;2.40;0.67;;;;;;;7.68;98.79;101383.00;5011236;28;20422;-76
2022/10/07 06:03:06;;;;;;;1.17;0.97;;;;;;;7.72;98.28;101384.91;5025996;28;20262;-76
2022/10/07 06:05:32;;;;;;;0.17;0.17;;;;;;;7.83;97.05;101383.03;5010984;28;20802;-72
2022/10/07 06:07:57;;;;;;;3.93;0.83;;;;;;;7.86;96.21;101390.66;5010665;28;20234;-71
2022/10/07 06:13:07;;;;;;;8.13;0.80;;;;;;;7.94;95.62;101389.28;5014855;28;20299;-72
2022/10/07 06:15:33;;;;;;;0.27;0.27;;;;;;;8.00;94.89;101386.31;5014597;28;20177;-71
2022/10/07 06:17:58;;;;;;;13.57;1.03;;;;;;;8.05;94.43;101386.31;5014592;28;20179;-71
2022/10/07 06:20:24;;;;;;;0.47;0.47;;;;;;;8.09;93.74;101378.41;5014694;28;20176;-72
2022/10/07 06:22:52;;;;;;;1.57;0.80;;;;;;;8.14;93.77;101385.78;5014840;28;20664;-72
2022/10/07 06:25:17;;;;;;;0.30;0.20;;;;;;;8.15;93.12;101381.97;5014611;28;20173;-72
2022/10/07 06:27:43;;;;;;;6.23;1.30;;;;;;;8.21;92.85;101380.88;5014377;28;20185;-68
2022/10/07 06:30:08;;;;;;;2.67;0.30;;;;;;;8.27;92.77;101377.06;5014512;28;20632;-72
2022/10/07 06:32:34;;;;;;;0.73;0.73;;;;;;;8.34;92.00;101388.53;5014198;28;20200;-72
2022/10/07 06:34:59;;;;;;;0.20;0.20;;;;;;;8.38;92.08;101380.63;5014272;28;20188;-72
2022/10/07 06:37:24;;;;;;;0.23;0.23;;;;;;;8.39;92.29;101384.97;5012472;28;20172;-72
2022/10/07 06:39:50;;;;;;;0.40;0.40;;;;;;;8.39;91.58;101383.09;5014461;28;20176;-72
2022/10/07 06:42:16;;;;;;;0.10;0.10;;;;;;;8.47;91.37;101389.88;5012937;28;20720;-72
2022/10/07 06:44:41;;;;;;;0.40;0.30;;;;;;;8.54;91.88;101385.00;5014199;28;20672;-72
2022/10/07 06:47:07;;;;;;;1.53;0.47;;;;;;;8.60;91.36;101386.59;5013527;28;20244;-71
2022/10/07 06:49:32;;;;;;;9.33;0.20;;;;;;;8.67;91.18;101381.66;5014229;28;20244;-72
2022/10/07 06:51:57;;;;;;;0.00;0.00;;;;;;;8.74;90.37;101381.41;5014072;28;20228;-72
2022/10/07 06:54:23;;;;;;;0.50;0.50;;;;;;;8.80;90.34;101386.53;5014091;28;20172;-72
2022/10/07 06:56:48;;;;;;;0.00;0.00;;;;;;;8.88;90.13;101387.91;5013824;28;20205;-72
2022/10/07 06:59:14;;;;;;;0.00;0.00;;;;;;;8.95;89.63;101391.94;5029157;28;20183;-72
2022/10/07 07:01:39;;;;;;;0.00;0.00;;;;;;;9.01;89.16;101390.03;5019000;28;20215;-73
2022/10/07 07:04:04;;;;;;;0.00;0.00;;;;;;;9.08;89.16;101384.28;5015927;28;20551;-73
2022/10/07 07:06:34;;;;;;;0.33;0.33;;;;;;;9.14;89.32;101381.28;5033355;28;20271;-72
2022/10/07 07:09:03;;;;;;;0.00;0.00;;;;;;;9.18;89.38;101381.53;5033555;28;20196;-76
2022/10/07 07:11:35;;;;;;;0.17;0.17;;;;;;;9.22;89.43;101383.41;5033335;28;20259;-78
2022/10/07 07:14:02;;;;;;;0.00;0.00;;;;;;;9.30;89.39;101373.03;5015913;28;20627;-78
2022/10/07 07:16:28;;;;;;;0.00;0.00;;;;;;;9.39;88.89;101376.78;5033096;28;20255;-75
2022/10/07 07:18:56;;;;;;;0.00;0.00;;;;;;;9.42;88.80;101382.53;5033408;28;20181;-74
2022/10/07 07:21:22;;;;;;;0.00;0.00;;;;;;;9.48;88.72;101388.75;5033350;28;20538;-74
2022/10/07 07:23:49;;;;;;;0.00;0.00;;;;;;;9.55;88.71;101383.81;5032575;28;20183;-74
2022/10/07 07:26:15;;;;;;;0.10;0.10;;;;;;;9.62;88.30;101391.69;5033157;28;20164;-74
2022/10/07 07:28:41;;;;;;;0.00;0.00;;;;;;;9.65;88.80;101377.47;5033065;28;20259;-74
2022/10/07 07:31:11;;;;;;;0.00;0.00;;;;;;;9.69;88.68;101387.56;5033174;28;20172;-75
2022/10/07 07:33:37;;;;;;;0.00;0.00;;;;;;;9.75;88.93;101385.59;5032930;28;20199;-73
2022/10/07 07:36:15;;;;;;;0.20;0.10;;;;;;;9.78;88.98;101377.66;5018582;28;20230;-74
2022/10/07 07:38:51;;;;;;;33.87;1.23;;;;;;;9.84;88.61;101373.81;5007660;28;20176;-74
2022/10/07 07:41:20;;;;;;;0.00;0.00;;;;;;;9.91;88.23;101378.13;5014907;28;20206;-74
2022/10/07 07:43:50;;;;;;;0.00;0.00;;;;;;;9.98;87.90;101378.59;5015262;28;20186;-75
2022/10/07 07:46:16;;;;;;;0.30;0.30;;;;;;;10.07;87.50;101377.72;5032116;28;20226;-74
2022/10/07 07:48:42;;;;;;;0.00;0.00;;;;;;;10.20;87.55;101378.19;5014696;28;20183;-77
2022/10/07 07:51:07;;;;;;;0.00;0.00;;;;;;;10.25;87.67;101383.63;5013512;28;20267;-77
2022/10/07 07:53:33;;;;;;;0.37;0.37;;;;;;;10.27;87.37;101368.59;4996087;28;20216;-77
2022/10/07 07:55:58;;;;;;;0.00;0.00;;;;;;;10.33;87.25;101377.56;5012729;28;20183;-77
2022/10/07 07:58:24;;;;;;;0.83;0.07;;;;;;;10.43;86.76;101364.63;5028066;28;20184;-77
2022/10/07 08:01:00;;;;;;;0.00;0.00;;;;;;;10.65;85.83;101374.25;5012812;28;20231;-76
2022/10/07 08:03:26;;;;;;;0.00;0.00;;;;;;;10.67;86.07;101358.38;5011373;28;20196;-77
2022/10/07 08:05:52;;;;;;;0.00;0.00;;;;;;;10.73;85.13;101360.78;5012783;28;20179;-77
2022/10/07 08:08:18;;;;;;;0.00;0.00;;;;;;;10.78;85.03;101359.06;5015749;28;20631;-77
2022/10/07 08:10:43;;;;;;;0.00;0.00;;;;;;;10.84;84.40;101357.91;5032435;28;20191;-78
2022/10/07 08:13:08;;;;;;;0.33;0.10;;;;;;;11.02;84.23;101357.97;5032258;28;20207;-78
2022/10/07 08:15:34;;;;;;;0.00;0.00;;;;;;;11.17;84.22;101356.16;5032203;28;20184;-77
2022/10/07 08:18:01;;;;;;;0.10;0.10;;;;;;;11.23;85.07;101352.25;5032303;28;20180;-78
2022/10/07 08:20:26;;;;;;;0.00;0.00;;;;;;;11.39;85.66;101350.13;5032091;28;20180;-78
2022/10/07 08:22:52;;;;;;;0.00;0.00;;;;;;;11.51;84.26;101350.50;5015046;28;20191;-77
2022/10/07 08:25:17;;;;;;;0.00;0.00;;;;;;;11.52;81.84;101349.41;5012068;28;20547;-77
2022/10/07 08:27:42;;;;;;;0.00;0.00;;;;;;;11.63;81.26;101346.22;5011784;28;20192;-78
2022/10/07 08:30:08;;;;;;;0.00;0.00;;;;;;;11.72;80.03;101337.34;5011957;28;20168;-76
2022/10/07 08:32:33;;;;;;;0.30;0.30;;;;;;;11.71;79.69;101338.44;5012099;28;20201;-77
2022/10/07 08:34:59;;;;;;;0.00;0.00;;;;;;;11.84;78.73;101344.00;5010912;28;20256;-77
2022/10/07 08:37:24;;;;;;;11.33;0.50;;;;;;;12.03;78.21;101335.78;5011457;28;20180;-77
2022/10/07 08:39:49;;;;;;;0.20;0.20;;;;;;;12.15;78.09;101338.03;5011808;28;20169;-78
2022/10/07 08:42:47;;;;;;;0.00;0.00;;;;;;;12.28;78.06;101336.44;5011855;28;20187;-77
2022/10/07 08:45:21;;;;;;;0.20;0.20;;;;;;;12.37;77.49;101334.66;4967733;28;20551;-77
2022/10/07 08:47:50;;;;;;;0.00;0.00;;;;;;;12.37;77.41;101323.69;5011007;28;20164;-77
2022/10/07 08:50:15;;;;;;;0.00;0.00;;;;;;;12.46;77.94;101328.19;4993995;28;20222;-77
2022/10/07 08:53:01;;;;;;;0.00;0.00;;;;;;;12.46;77.71;101319.97;5011392;28;20192;-77
2022/10/07 08:55:38;;;;;;;0.00;0.00;;;;;;;12.65;77.52;101324.53;4993929;28;20199;-77
2022/10/07 08:58:25;;;;;;;0.00;0.00;;;;;;;12.66;76.25;101326.97;5011579;28;20226;-77
2022/10/07 09:01:01;;;;;;;0.10;0.10;;;;;;;12.74;76.89;101318.06;5010348;28;20199;-77
2022/10/07 09:03:46;;;;;;;0.10;0.10;;;;;;;12.86;76.20;101319.44;5008668;28;20199;-77
2022/10/07 09:06:16;;;;;;;0.00;0.00;;;;;;;12.86;76.41;101325.75;5010467;28;20180;-77
2022/10/07 09:08:46;;;;;;;0.77;0.77;;;;;;;12.88;76.27;101323.53;5016418;28;20177;-77
2022/10/07 09:11:19;;;;;;;0.00;0.00;;;;;;;12.86;76.07;101324.94;5011217;28;20571;-77
2022/10/07 09:13:58;;;;;;;0.20;0.20;;;;;;;12.86;76.96;101316.72;5010883;28;20446;-77
2022/10/07 09:16:31;;;;;;;0.00;0.00;;;;;;;12.87;76.81;101304.63;5011072;28;20203;-78
2022/10/07 09:19:02;;;;;;;0.00;0.00;;;;;;;13.16;74.90;101315.25;5011247;28;20307;-77
2022/10/07 09:21:49;;;;;;;5.87;1.10;;;;;;;13.43;74.14;101312.50;5011058;28;20173;-76
2022/10/07 09:24:19;;;;;;;0.00;0.00;;;;;;;13.58;72.28;101306.66;5029293;28;20184;-76
2022/10/07 09:26:45;;;;;;;6.97;0.63;;;;;;;13.62;71.64;101299.44;5011000;28;20180;-77
2022/10/07 09:29:11;;;;;;;0.43;0.30;;;;;;;13.71;71.56;101294.00;5030555;28;20229;-76
2022/10/07 09:31:38;;;;;;;0.10;0.10;;;;;;;13.80;71.10;101300.38;5030614;28;20620;-76
2022/10/07 09:34:04;;;;;;;0.00;0.00;;;;;;;13.83;70.08;101285.19;5030771;28;20180;-77
2022/10/07 09:36:29;;;;;;;0.87;0.80;;;;;;;13.93;70.59;101282.22;5030264;28;20658;-77
2022/10/07 09:38:55;;;;;;;0.30;0.10;;;;;;;14.05;71.54;101278.91;5030628;28;20274;-76
2022/10/07 09:41:29;;;;;;;1.30;1.07;;;;;;;14.12;70.34;101273.75;5030516;28;20174;-75
2022/10/07 09:44:00;;;;;;;0.47;0.47;;;;;;;14.20;69.57;101286.75;5030409;28;20533;-77
2022/10/07 09:46:34;;;;;;;0.10;0.10;;;;;;;14.18;68.71;101273.31;5029292;28;20180;-76
2022/10/07 09:49:04;;;;;;;0.00;0.00;;;;;;;14.27;69.26;101262.34;5029203;28;20392;-76
2022/10/07 09:51:31;;;;;;;0.20;0.20;;;;;;;14.39;68.86;101261.75;5030455;28;20654;-76
2022/10/07 09:54:02;;;;;;;9.53;0.37;;;;;;;14.46;69.26;101262.13;5030788;28;20207;-76
2022/10/07 09:56:42;;;;;;;0.10;0.00;;;;;;;14.44;67.54;101256.16;5032703;28;20203;-77
2022/10/07 09:59:26;;;;;;;0.00;0.00;;;;;;;14.47;67.54;101253.59;5036899;28;20180;-76
2022/10/07 10:01:57;;;;;;;0.83;0.83;;;;;;;14.58;67.58;101252.16;5011500;28;20598;-76
2022/10/07 10:04:31;;;;;;;0.30;0.30;;;;;;;14.58;67.08;101251.34;5011043;28;20196;-75
2022/10/07 10:07:02;;;;;;;0.00;0.00;;;;;;;14.66;67.51;101247.00;5011157;28;20598;-76
2022/10/07 10:09:27;;;;;;;0.00;0.00;;;;;;;14.75;67.43;101245.88;5011209;28;20176;-76
2022/10/07 10:12:11;;;;;;;0.00;0.00;;;;;;;14.78;67.09;101242.53;5010923;28;20628;-76
2022/10/07 10:14:44;;;;;;;1.37;1.27;;;;;;;14.89;67.20;101245.75;5010996;28;20393;-76
2022/10/07 10:17:21;;;;;;;0.00;0.00;;;;;;;14.81;66.97;101236.38;5010376;28;20168;-76
2022/10/07 10:19:46;;;;;;;0.00;0.00;;;;;;;14.95;68.20;101232.69;5010644;28;20172;-76
2022/10/07 10:22:24;;;;;;;0.20;0.20;;;;;;;15.10;67.03;101233.03;5025566;28;20185;-75
2022/10/07 10:27:42;;;;;;;6.60;0.77;;;;;;;14.91;66.43;101232.53;5009017;28;20580;-76
2022/10/07 10:30:15;;;;;;;4.33;1.03;;;;;;;14.97;66.55;101220.22;5007531;28;20176;-75
2022/10/07 10:32:47;;;;;;;0.27;0.23;;;;;;;15.06;66.75;101226.56;5010423;28;20210;-76
2022/10/07 10:35:26;;;;;;;0.00;0.00;;;;;;;15.17;67.26;101221.53;5027652;28;20272;-75
2022/10/07 10:37:56;;;;;;;0.00;0.00;;;;;;;15.30;66.83;101217.78;5008848;28;20168;-76
2022/10/07 10:40:37;;;;;;;0.80;0.33;;;;;;;15.44;66.96;101212.13;5010327;28;20235;-76
2022/10/07 10:43:24;;;;;;;9.43;2.17;;;;;;;15.45;65.54;101205.47;5010161;28;20648;-76
2022/10/07 10:45:55;;;;;;;0.00;0.00;;;;;;;15.45;65.33;101208.22;5009887;28;20181;-76
2022/10/07 10:48:33;;;;;;;4.27;1.10;;;;;;;15.42;64.93;101208.88;5018724;28;20180;-76
2022/10/07 10:51:20;;;;;;;0.40;0.40;;;;;;;15.43;64.65;101193.97;5029828;28;20253;-76
2022/10/07 10:54:04;;;;;;;0.00;0.00;;;;;;;15.48;65.60;101191.88;4999486;28;20255;-76
2022/10/07 10:56:58;;;;;;;12.03;0.60;;;;;;;15.53;63.89;101190.09;5001983;28;20188;-76
2022/10/07 10:59:34;;;;;;;0.70;0.27;;;;;;;15.60;64.64;101180.22;5013478;28;20188;-76
2022/10/07 11:02:24;;;;;;;0.00;0.00;;;;;;;15.83;66.28;101175.31;5012620;28;20814;-75
2022/10/07 11:05:23;;;;;;;1.03;1.03;;;;;;;15.84;63.67;101160.38;5012112;28;20576;-76
2022/10/07 11:08:06;;;;;;;2.90;0.63;;;;;;;15.79;62.04;101157.81;5007478;28;20196;-76
2022/10/07 11:10:47;;;;;;;8.03;0.37;;;;;;;15.81;62.73;101150.03;4995631;28;20239;-75
2022/10/07 11:13:14;;;;;;;0.00;0.00;;;;;;;15.90;62.78;101144.47;5013531;28;20286;-76
2022/10/07 11:15:46;;;;;;;2.00;0.20;;;;;;;15.86;61.72;101143.53;5013598;28;20223;-76
2022/10/07 11:18:35;;;;;;;6.90;0.97;;;;;;;15.90;62.29;101133.44;5013079;28;20272;-75
2022/10/07 11:21:06;;;;;;;0.73;0.47;;;;;;;15.94;61.41;101129.72;5012243;28;20199;-77
2022/10/07 11:23:40;;;;;;;3.50;0.60;;;;;;;15.80;60.45;101129.13;5020000;28;20366;-73
2022/10/07 11:26:20;;;;;;;0.10;0.10;;;;;;;15.83;61.23;101122.94;5013060;28;20260;-74
2022/10/07 11:28:48;;;;;;;0.13;0.13;;;;;;;15.94;61.52;101126.97;5005791;28;20180;-73
2022/10/07 11:31:20;;;;;;;0.60;0.60;;;;;;;16.00;61.63;101111.84;5013495;28;20268;-73
2022/10/07 11:34:14;;;;;;;2.77;1.83;;;;;;;16.06;61.16;101115.25;5013298;28;20212;-74
2022/10/07 11:37:20;;;;;;;0.67;0.67;;;;;;;16.11;60.49;101109.53;5013297;28;20183;-73
2022/10/07 11:39:47;;;;;;;1.50;0.57;;;;;;;16.21;60.53;101102.84;4971494;28;20215;-73
2022/10/07 11:42:18;;;;;;;0.00;0.00;;;;;;;16.26;60.09;101094.38;5005117;28;21447;-73
2022/10/07 11:45:03;;;;;;;0.73;0.73;;;;;;;16.32;59.53;101095.78;5025141;28;20196;-73
2022/10/07 11:47:54;;;;;;;0.97;0.67;;;;;;;16.24;58.70;101093.91;5023573;28;20176;-73
2022/10/07 11:50:26;;;;;;;9.40;1.40;;;;;;;16.22;58.67;101091.47;4994468;28;20325;-73
2022/10/07 11:52:55;;;;;;;0.20;0.20;;;;;;;16.20;59.25;101076.38;5016528;28;20540;-73